Time;durP1;ratioP1;P1;durP2;ratioP2;P2;SDS_P1;SDS_P2;PMS_P1;PMS_P2;Temp;Humidity;BMP_temperature;BMP_pressure;BME280_temperature;BME280_humidity;BME280_pressure;Samples;Min_cycle;Max_cycle;Signal;HPM_P1;HPM_P2
2021/09/09 00:01:11;;;;;;;10.67;9.73;;;19.60;99.90;;;;;;5035329;28;20294;-61
2021/09/09 00:03:37;;;;;;;11.20;10.00;;;19.70;99.90;;;;;;5035360;28;20227;-61
2021/09/09 00:06:02;;;;;;;9.97;9.03;;;19.70;99.90;;;;;;5035377;28;20251;-62
2021/09/09 00:08:29;;;;;;;13.07;9.80;;;19.70;99.90;;;;;;5035065;28;20174;-61
2021/09/09 00:10:54;;;;;;;11.57;10.57;;;19.60;99.90;;;;;;5035811;28;20168;-62
2021/09/09 00:13:20;;;;;;;10.60;9.60;;;19.60;99.90;;;;;;5034085;28;20937;-61
2021/09/09 00:15:46;;;;;;;11.97;10.87;;;19.50;99.90;;;;;;5035377;28;20175;-61
2021/09/09 00:18:11;;;;;;;12.07;10.97;;;19.50;99.90;;;;;;5034861;28;20202;-61
2021/09/09 00:20:37;;;;;;;11.20;10.10;;;19.50;99.90;;;;;;5035436;28;20171;-60
2021/09/09 00:23:03;;;;;;;10.40;9.50;;;19.40;99.90;;;;;;5034789;28;20202;-61
2021/09/09 00:25:28;;;;;;;10.30;9.30;;;19.50;99.90;;;;;;5035786;28;20203;-61
2021/09/09 00:27:54;;;;;;;10.60;9.70;;;19.50;99.90;;;;;;5034741;28;20205;-61
2021/09/09 00:30:20;;;;;;;11.27;10.27;;;19.50;99.90;;;;;;5035247;28;20203;-61
2021/09/09 00:32:45;;;;;;;10.23;9.23;;;19.30;99.90;;;;;;5034774;28;20664;-61
2021/09/09 00:35:11;;;;;;;9.80;8.90;;;19.30;99.90;;;;;;5035108;28;20418;-61
2021/09/09 00:37:37;;;;;;;10.87;9.87;;;19.20;99.90;;;;;;5034777;28;20556;-61
2021/09/09 00:40:04;;;;;;;9.43;8.43;;;19.20;99.90;;;;;;5034706;28;20413;-61
2021/09/09 00:42:29;;;;;;;9.90;8.97;;;19.20;99.90;;;;;;5034323;28;20222;-61
2021/09/09 00:44:55;;;;;;;10.23;9.23;;;19.20;99.90;;;;;;5034602;28;20442;-62
2021/09/09 00:47:20;;;;;;;11.63;10.50;;;19.20;99.90;;;;;;5034608;28;20250;-62
2021/09/09 00:49:46;;;;;;;11.00;9.87;;;19.10;99.90;;;;;;5034569;28;20170;-62
2021/09/09 00:52:13;;;;;;;10.17;9.07;;;19.10;99.90;;;;;;5034182;28;20210;-61
2021/09/09 00:54:41;;;;;;;10.07;9.10;;;19.10;99.90;;;;;;5034473;28;20261;-61
2021/09/09 00:57:08;;;;;;;8.97;8.07;;;19.10;99.90;;;;;;5034352;28;20424;-61
2021/09/09 00:59:34;;;;;;;10.63;9.70;;;19.20;99.90;;;;;;5034477;28;20410;-61
2021/09/09 01:02:01;;;;;;;9.00;8.20;;;19.10;99.90;;;;;;5034279;28;20438;-60
2021/09/09 01:04:26;;;;;;;10.20;9.30;;;19.10;99.90;;;;;;5034315;28;20445;-61
2021/09/09 01:06:55;;;;;;;10.60;9.60;;;19.20;99.90;;;;;;5034022;28;20486;-61
2021/09/09 01:09:21;;;;;;;10.07;9.13;;;19.10;99.90;;;;;;5034511;28;20163;-62
2021/09/09 01:11:46;;;;;;;11.87;10.67;;;18.90;99.90;;;;;;5033922;28;20457;-62
2021/09/09 01:14:14;;;;;;;11.20;10.10;;;18.80;99.90;;;;;;5034312;28;20179;-61
2021/09/09 01:16:41;;;;;;;9.53;8.63;;;18.90;99.90;;;;;;5034069;28;20179;-61
2021/09/09 01:19:08;;;;;;;10.93;9.83;;;19.00;99.90;;;;;;5034076;28;20410;-62
2021/09/09 01:21:35;;;;;;;9.93;9.03;;;19.00;99.90;;;;;;5033665;28;20426;-63
2021/09/09 01:24:02;;;;;;;10.13;9.23;;;19.00;99.90;;;;;;5034161;28;20874;-62
2021/09/09 01:26:30;;;;;;;11.63;10.53;;;19.00;99.90;;;;;;5033630;28;20414;-62
2021/09/09 01:28:57;;;;;;;11.23;9.63;;;19.10;99.90;;;;;;5033935;28;20493;-62
2021/09/09 01:31:24;;;;;;;11.40;10.33;;;19.10;99.90;;;;;;5033778;28;20434;-62
2021/09/09 01:33:56;;;;;;;10.30;9.40;;;19.10;99.90;;;;;;5033975;28;20764;-62
2021/09/09 01:36:23;;;;;;;12.80;10.33;;;19.10;99.90;;;;;;5033715;28;20409;-62
2021/09/09 01:38:49;;;;;;;10.33;9.33;;;19.10;99.90;;;;;;5033342;28;20430;-62
2021/09/09 01:41:14;;;;;;;10.30;9.30;;;19.10;99.90;;;;;;5033345;28;20437;-61
2021/09/09 01:43:40;;;;;;;10.07;9.07;;;19.00;99.90;;;;;;5033597;28;20783;-62
2021/09/09 01:46:05;;;;;;;9.87;8.93;;;19.00;99.90;;;;;;5033674;28;20186;-61
2021/09/09 01:48:31;;;;;;;10.50;9.60;;;19.00;99.90;;;;;;5033664;28;20163;-61
2021/09/09 01:50:57;;;;;;;10.10;9.20;;;18.90;99.90;;;;;;5033071;28;20168;-61
2021/09/09 01:53:22;;;;;;;11.20;10.10;;;18.90;99.90;;;;;;5033536;28;20162;-62
2021/09/09 01:55:48;;;;;;;10.70;9.70;;;18.80;99.90;;;;;;5033622;28;20167;-62
2021/09/09 01:58:14;;;;;;;11.27;9.70;;;18.80;99.90;;;;;;5033437;28;20221;-60
2021/09/09 02:00:39;;;;;;;11.77;10.53;;;18.90;99.90;;;;;;5033544;28;20531;-62
2021/09/09 02:03:05;;;;;;;10.00;9.00;;;18.90;99.90;;;;;;5033380;28;20204;-61
2021/09/09 02:05:31;;;;;;;9.30;8.40;;;18.90;99.90;;;;;;5033217;28;20262;-61
2021/09/09 02:07:56;;;;;;;11.47;10.47;;;18.80;99.90;;;;;;5033243;28;21006;-61
2021/09/09 02:10:22;;;;;;;11.80;10.60;;;18.80;99.90;;;;;;5033512;28;20331;-61
2021/09/09 02:12:48;;;;;;;11.60;10.60;;;18.70;99.90;;;;;;5032819;28;20196;-61
2021/09/09 02:15:14;;;;;;;11.87;10.77;;;18.70;99.90;;;;;;5033438;28;20544;-61
2021/09/09 02:17:40;;;;;;;10.80;9.80;;;18.70;99.90;;;;;;5033137;28;20505;-61
2021/09/09 02:20:07;;;;;;;11.90;9.83;;;18.60;99.90;;;;;;5033122;28;20178;-61
2021/09/09 02:22:32;;;;;;;12.47;11.23;;;18.70;99.90;;;;;;5032715;28;20294;-61
2021/09/09 02:24:58;;;;;;;10.40;9.50;;;18.70;99.90;;;;;;5033254;28;20458;-61
2021/09/09 02:27:24;;;;;;;10.83;9.83;;;18.70;99.90;;;;;;5033387;28;20631;-62
2021/09/09 02:29:50;;;;;;;9.83;8.93;;;18.50;99.90;;;;;;5033057;28;20244;-61
2021/09/09 02:32:16;;;;;;;11.37;10.27;;;18.50;99.90;;;;;;5032941;28;20187;-61
2021/09/09 02:34:42;;;;;;;11.60;10.50;;;18.50;99.90;;;;;;5033225;28;20406;-60
2021/09/09 02:37:07;;;;;;;12.73;9.90;;;18.50;99.90;;;;;;5028624;28;20422;-61
2021/09/09 02:39:33;;;;;;;10.47;9.57;;;18.50;99.90;;;;;;5039599;28;20187;-61
2021/09/09 02:41:59;;;;;;;11.37;10.27;;;18.50;99.90;;;;;;5035666;28;20197;-61
2021/09/09 02:44:24;;;;;;;10.50;9.50;;;18.40;99.90;;;;;;5037641;28;20195;-61
2021/09/09 02:46:50;;;;;;;11.00;9.70;;;18.40;99.90;;;;;;5037178;28;20171;-60
2021/09/09 02:49:16;;;;;;;10.90;9.80;;;18.40;99.90;;;;;;5037066;28;20217;-61
2021/09/09 02:51:41;;;;;;;9.90;9.13;;;18.30;99.90;;;;;;5036657;28;20210;-61
2021/09/09 02:54:07;;;;;;;15.00;9.50;;;18.30;99.90;;;;;;5055784;23;20226;-61
2021/09/09 02:56:33;;;;;;;11.57;10.57;;;18.20;99.90;;;;;;4999277;28;20168;-58
2021/09/09 02:58:59;;;;;;;11.57;10.57;;;18.20;99.90;;;;;;4996806;28;20255;-57
2021/09/09 03:01:25;;;;;;;11.87;10.67;;;18.20;99.90;;;;;;4997527;28;20495;-58
2021/09/09 03:03:51;;;;;;;12.07;10.73;;;18.20;99.90;;;;;;4997590;28;20172;-57
2021/09/09 03:06:16;;;;;;;11.90;10.80;;;18.20;99.90;;;;;;4997165;28;21004;-53
2021/09/09 03:08:42;;;;;;;12.20;10.70;;;18.20;99.90;;;;;;4997568;28;20256;-53
2021/09/09 03:11:08;;;;;;;11.63;10.60;;;18.10;99.90;;;;;;4996875;28;20244;-55
2021/09/09 03:13:34;;;;;;;12.50;11.03;;;18.10;99.90;;;;;;4996820;28;20175;-56
2021/09/09 03:15:59;;;;;;;12.00;10.90;;;18.10;99.90;;;;;;4996892;28;20323;-50
2021/09/09 03:18:25;;;;;;;10.50;9.50;;;18.00;99.90;;;;;;4996898;28;20623;-49
2021/09/09 03:20:52;;;;;;;11.07;9.97;;;17.90;99.90;;;;;;4997396;28;20176;-52
2021/09/09 03:23:18;;;;;;;11.33;10.43;;;18.00;99.90;;;;;;4997429;28;20179;-52
2021/09/09 03:25:43;;;;;;;10.90;9.80;;;18.10;99.90;;;;;;4996264;28;20848;-53
2021/09/09 03:28:09;;;;;;;11.40;10.37;;;18.00;99.90;;;;;;4996792;28;20164;-51
2021/09/09 03:30:34;;;;;;;11.33;10.30;;;18.10;99.90;;;;;;4997035;28;20231;-51
2021/09/09 03:33:00;;;;;;;10.77;9.80;;;18.20;99.90;;;;;;4997167;28;20169;-51
2021/09/09 03:35:25;;;;;;;10.73;9.70;;;18.20;99.90;;;;;;4997043;28;20216;-56
2021/09/09 03:37:51;;;;;;;10.60;9.67;;;18.20;99.90;;;;;;4996578;28;20200;-58
2021/09/09 03:40:17;;;;;;;11.50;10.40;;;18.20;99.90;;;;;;4996390;28;20176;-58
2021/09/09 03:42:42;;;;;;;10.43;9.43;;;18.20;99.90;;;;;;4996810;28;20180;-58
2021/09/09 03:45:08;;;;;;;11.10;10.03;;;18.20;99.90;;;;;;4996466;28;20206;-58
2021/09/09 03:47:34;;;;;;;11.47;10.47;;;18.10;99.90;;;;;;4996635;28;20537;-58
2021/09/09 03:50:00;;;;;;;10.10;9.30;;;18.20;99.90;;;;;;4996259;28;20412;-57
2021/09/09 03:52:25;;;;;;;11.40;10.40;;;18.20;99.90;;;;;;4977894;28;20180;-58
2021/09/09 03:54:51;;;;;;;10.50;9.50;;;18.30;99.90;;;;;;4984444;28;20724;-56
2021/09/09 03:57:16;;;;;;;12.00;10.80;;;18.20;99.90;;;;;;4996124;28;20175;-55
2021/09/09 03:59:42;;;;;;;10.33;9.43;;;18.20;99.90;;;;;;4996449;28;20173;-58
2021/09/09 04:02:07;;;;;;;11.70;10.70;;;18.10;99.90;;;;;;4996552;28;20260;-53
2021/09/09 04:04:33;;;;;;;11.80;10.70;;;18.20;99.90;;;;;;4996109;28;20200;-58
2021/09/09 04:06:59;;;;;;;10.20;9.30;;;18.10;99.90;;;;;;4996121;28;20165;-59
2021/09/09 04:09:24;;;;;;;11.13;10.10;;;18.20;99.90;;;;;;5010922;28;20196;-58
2021/09/09 04:11:50;;;;;;;11.67;10.57;;;18.20;99.90;;;;;;4995575;28;20191;-58
2021/09/09 04:14:16;;;;;;;10.70;9.70;;;18.20;99.90;;;;;;4995856;28;20192;-59
2021/09/09 04:16:41;;;;;;;10.90;10.07;;;18.30;99.90;;;;;;4996025;28;20207;-56
2021/09/09 04:19:07;;;;;;;11.77;10.67;;;18.30;99.90;;;;;;4995931;28;20181;-56
2021/09/09 04:21:33;;;;;;;12.53;11.33;;;18.30;99.90;;;;;;4996366;28;20177;-59
2021/09/09 04:23:58;;;;;;;12.10;10.20;;;18.40;99.90;;;;;;4995773;28;20260;-57
2021/09/09 04:26:24;;;;;;;12.43;11.00;;;18.30;99.90;;;;;;4995786;28;20630;-54
2021/09/09 04:28:50;;;;;;;10.53;9.63;;;18.30;99.90;;;;;;4995345;28;20538;-57
2021/09/09 04:31:15;;;;;;;10.80;9.80;;;18.40;99.90;;;;;;4995944;28;20165;-58
2021/09/09 04:33:41;;;;;;;12.30;11.10;;;18.50;99.90;;;;;;4995895;28;20204;-58
2021/09/09 04:36:07;;;;;;;11.63;10.63;;;18.50;99.90;;;;;;4995702;28;20192;-58
2021/09/09 04:38:33;;;;;;;10.63;9.63;;;18.60;99.90;;;;;;4995961;28;20438;-59
2021/09/09 04:40:58;;;;;;;11.00;9.90;;;18.50;99.90;;;;;;4995283;28;20365;-59
2021/09/09 04:43:24;;;;;;;10.63;9.60;;;18.50;99.90;;;;;;4995741;28;20204;-58
2021/09/09 04:45:50;;;;;;;10.60;9.77;;;18.50;99.90;;;;;;4995334;28;20212;-58
2021/09/09 04:48:16;;;;;;;11.30;10.30;;;18.60;99.90;;;;;;4995474;28;20224;-58
2021/09/09 04:50:41;;;;;;;9.93;8.97;;;18.60;99.90;;;;;;4995705;28;20400;-54
2021/09/09 04:53:07;;;;;;;11.87;10.07;;;18.60;99.90;;;;;;4995718;28;20585;-55
2021/09/09 04:55:33;;;;;;;11.63;10.50;;;18.60;99.90;;;;;;4994938;28;20224;-57
2021/09/09 04:57:58;;;;;;;11.00;10.10;;;18.60;99.90;;;;;;4995266;28;20180;-58
2021/09/09 05:00:24;;;;;;;12.23;10.63;;;18.60;99.90;;;;;;4995563;28;20177;-58
2021/09/09 05:02:50;;;;;;;10.57;9.57;;;18.70;99.90;;;;;;4995346;28;20173;-58
2021/09/09 05:05:16;;;;;;;10.77;9.80;;;18.70;99.90;;;;;;4994605;28;20215;-58
2021/09/09 05:07:42;;;;;;;11.20;9.80;;;18.70;99.90;;;;;;4995525;28;20177;-58
2021/09/09 05:10:08;;;;;;;11.80;10.60;;;18.70;99.90;;;;;;4994873;28;20466;-55
2021/09/09 05:12:34;;;;;;;12.37;11.27;;;18.70;99.90;;;;;;4995245;28;20169;-58
2021/09/09 05:14:59;;;;;;;13.10;11.83;;;18.70;99.90;;;;;;4995284;28;20511;-58
2021/09/09 05:17:25;;;;;;;11.30;10.30;;;18.60;99.90;;;;;;4994678;28;20466;-58
2021/09/09 05:19:50;;;;;;;12.63;11.43;;;18.60;99.90;;;;;;4994948;28;20173;-58
2021/09/09 05:22:16;;;;;;;11.20;10.10;;;18.50;99.90;;;;;;4995108;28;20173;-59
2021/09/09 05:24:41;;;;;;;11.20;10.20;;;18.50;99.90;;;;;;4994460;28;20209;-58
2021/09/09 05:27:07;;;;;;;12.17;10.30;;;18.60;99.90;;;;;;4994426;28;20251;-58
2021/09/09 05:29:33;;;;;;;12.20;11.10;;;18.70;99.90;;;;;;4994757;28;20175;-58
2021/09/09 05:31:58;;;;;;;11.43;10.23;;;18.70;99.90;;;;;;4994900;28;20169;-59
2021/09/09 05:34:24;;;;;;;12.40;11.20;;;18.60;99.90;;;;;;4994276;28;20212;-57
2021/09/09 05:36:49;;;;;;;11.30;10.23;;;18.70;99.90;;;;;;4994702;28;20510;-58
2021/09/09 05:39:15;;;;;;;12.80;11.70;;;18.70;99.90;;;;;;4994354;28;20172;-58
2021/09/09 05:41:41;;;;;;;11.13;10.13;;;18.80;99.90;;;;;;4994038;28;20164;-57
2021/09/09 05:44:06;;;;;;;13.93;10.47;;;18.90;99.90;;;;;;4994837;28;20695;-58
2021/09/09 05:46:32;;;;;;;12.77;10.30;;;19.00;99.90;;;;;;4994417;28;20564;-57
2021/09/09 05:48:57;;;;;;;12.43;10.80;;;19.00;99.90;;;;;;4993568;28;20173;-59
2021/09/09 05:51:23;;;;;;;11.33;10.20;;;19.20;99.90;;;;;;4994234;28;20574;-58
2021/09/09 05:53:49;;;;;;;12.50;11.30;;;19.30;99.90;;;;;;4994398;28;20261;-59
2021/09/09 05:56:15;;;;;;;12.57;11.37;;;19.60;99.90;;;;;;4993970;28;20185;-58
2021/09/09 05:58:40;;;;;;;12.67;11.37;;;19.70;99.90;;;;;;4988373;28;20627;-58
2021/09/09 06:01:07;;;;;;;11.60;10.50;;;19.70;99.90;;;;;;4974732;28;20515;-58
2021/09/09 06:03:35;;;;;;;10.67;9.60;;;19.80;99.90;;;;;;4975276;28;20693;-59
2021/09/09 06:06:03;;;;;;;11.90;10.60;;;19.90;99.90;;;;;;4974670;28;20456;-58
2021/09/09 06:08:31;;;;;;;12.93;11.60;;;19.80;99.90;;;;;;4974935;28;20425;-58
2021/09/09 06:10:57;;;;;;;12.43;11.33;;;19.80;99.90;;;;;;4974222;28;20424;-58
2021/09/09 06:13:22;;;;;;;10.67;9.67;;;20.00;99.90;;;;;;4974421;28;20772;-57
2021/09/09 06:15:48;;;;;;;11.27;10.17;;;19.90;99.90;;;;;;4973702;28;20195;-57
2021/09/09 06:18:14;;;;;;;10.57;9.60;;;19.90;99.90;;;;;;4975075;28;20169;-58
2021/09/09 06:20:39;;;;;;;10.50;9.60;;;20.10;99.90;;;;;;4974794;28;20177;-58
2021/09/09 06:23:05;;;;;;;9.57;8.77;;;20.50;99.90;;;;;;4974653;28;20216;-58
2021/09/09 06:25:30;;;;;;;9.30;8.50;;;20.70;99.90;;;;;;4987306;28;20199;-57
2021/09/09 06:27:56;;;;;;;9.47;8.67;;;21.00;99.90;;;;;;4994158;28;20205;-57
2021/09/09 06:30:22;;;;;;;10.13;9.13;;;21.30;99.90;;;;;;4994165;28;20192;-58
2021/09/09 06:32:47;;;;;;;9.90;8.90;;;21.60;99.90;;;;;;4993889;28;20638;-58
2021/09/09 06:35:13;;;;;;;10.87;9.80;;;21.80;99.90;;;;;;4993646;28;20192;-58
2021/09/09 06:37:39;;;;;;;11.53;9.87;;;21.90;99.90;;;;;;4993832;28;20215;-58
2021/09/09 06:40:06;;;;;;;9.50;8.70;;;22.10;99.90;;;;;;4993908;28;20535;-56
2021/09/09 06:42:32;;;;;;;9.00;8.17;;;22.10;99.90;;;;;;4993471;28;20173;-58
2021/09/09 06:44:57;;;;;;;9.23;8.43;;;22.20;99.90;;;;;;4993557;28;20459;-59
2021/09/09 06:47:23;;;;;;;9.90;8.90;;;22.10;99.90;;;;;;4994326;28;20169;-58
2021/09/09 06:49:48;;;;;;;11.07;9.40;;;22.10;99.90;;;;;;4993959;28;20169;-56
2021/09/09 06:52:15;;;;;;;12.00;9.40;;;22.10;99.90;;;;;;4994094;28;20610;-59
2021/09/09 06:54:42;;;;;;;9.87;8.97;;;22.00;99.90;;;;;;4993392;28;20228;-57
2021/09/09 06:57:07;;;;;;;11.50;10.30;;;22.00;99.90;;;;;;4993663;28;20928;-58
2021/09/09 06:59:33;;;;;;;10.23;9.30;;;21.90;99.90;;;;;;4993701;28;20411;-57
2021/09/09 07:01:59;;;;;;;9.27;8.40;;;21.90;99.90;;;;;;4993594;28;20216;-58
2021/09/09 07:04:24;;;;;;;9.50;8.70;;;22.00;99.90;;;;;;4993419;28;20278;-58
2021/09/09 07:06:50;;;;;;;9.80;8.90;;;22.10;99.90;;;;;;4993490;28;20172;-58
2021/09/09 07:09:15;;;;;;;11.27;10.27;;;22.20;99.90;;;;;;4993391;28;20255;-58
2021/09/09 07:11:41;;;;;;;9.07;8.27;;;22.10;99.90;;;;;;4993385;28;20187;-58
2021/09/09 07:14:06;;;;;;;10.13;9.20;;;22.00;99.90;;;;;;4993304;28;20203;-57
2021/09/09 07:16:32;;;;;;;14.87;9.10;;;21.90;99.90;;;;;;4993161;28;20172;-57
2021/09/09 07:18:58;;;;;;;10.77;9.87;;;21.80;99.90;;;;;;4993271;28;20260;-57
2021/09/09 07:21:23;;;;;;;10.90;9.90;;;21.90;99.90;;;;;;4993513;28;20173;-56
2021/09/09 07:23:50;;;;;;;10.93;9.90;;;21.90;99.90;;;;;;4993189;28;20192;-54
2021/09/09 07:26:15;;;;;;;11.03;10.00;;;21.80;99.90;;;;;;4993105;28;20172;-58
2021/09/09 07:28:41;;;;;;;9.90;9.10;;;21.80;99.90;;;;;;4996642;28;20407;-56
2021/09/09 07:31:06;;;;;;;10.27;9.23;;;21.80;99.90;;;;;;4996946;28;20479;-57
2021/09/09 07:33:32;;;;;;;12.90;9.60;;;21.90;99.90;;;;;;4997044;28;20168;-57
2021/09/09 07:35:58;;;;;;;11.50;9.20;;;22.10;99.90;;;;;;4997002;28;20247;-57
2021/09/09 07:38:23;;;;;;;10.87;9.87;;;22.20;99.90;;;;;;4997365;28;20196;-57
2021/09/09 07:40:49;;;;;;;10.40;9.30;;;22.40;99.90;;;;;;4996466;28;20263;-57
2021/09/09 07:43:14;;;;;;;10.87;9.70;;;22.60;99.90;;;;;;4996404;28;20172;-57
2021/09/09 07:45:40;;;;;;;10.17;9.37;;;22.70;99.90;;;;;;4996446;28;20268;-57
2021/09/09 07:48:06;;;;;;;11.80;10.30;;;22.70;99.90;;;;;;4996871;28;20542;-56
2021/09/09 07:50:31;;;;;;;10.07;9.17;;;22.60;99.90;;;;;;4996818;28;20169;-58
2021/09/09 07:52:58;;;;;;;9.50;8.60;;;22.70;99.90;;;;;;4996946;28;20173;-57
2021/09/09 07:55:24;;;;;;;9.73;8.90;;;22.80;99.90;;;;;;4995889;28;20258;-57
2021/09/09 07:57:50;;;;;;;9.33;8.43;;;22.90;99.90;;;;;;4996300;28;20408;-57
2021/09/09 08:00:17;;;;;;;11.17;8.03;;;23.30;99.90;;;;;;4996376;28;20496;-56
2021/09/09 08:02:43;;;;;;;8.80;8.00;;;23.70;99.90;;;;;;4984348;28;20174;-57
2021/09/09 08:05:10;;;;;;;9.53;8.47;;;24.20;99.90;;;;;;4976905;28;20448;-57
2021/09/09 08:07:43;;;;;;;8.70;7.90;;;24.10;99.90;;;;;;4976686;28;20496;-57
2021/09/09 08:10:10;;;;;;;8.37;7.67;;;24.20;99.90;;;;;;4976629;28;20404;-57
2021/09/09 08:12:36;;;;;;;8.13;7.33;;;24.50;99.90;;;;;;4976307;28;20436;-57
2021/09/09 08:15:04;;;;;;;8.53;7.73;;;24.70;99.90;;;;;;4976761;28;20487;-53
2021/09/09 08:17:29;;;;;;;8.03;7.30;;;24.80;99.90;;;;;;4976891;28;20838;-56
2021/09/09 08:19:55;;;;;;;10.27;7.37;;;24.90;99.90;;;;;;4976851;28;20432;-57
2021/09/09 08:22:21;;;;;;;8.07;7.30;;;25.10;99.90;;;;;;4976705;28;20240;-57
2021/09/09 08:24:47;;;;;;;8.37;7.67;;;25.10;99.90;;;;;;4983785;28;20209;-53
2021/09/09 08:27:12;;;;;;;7.30;6.60;;;25.10;99.90;;;;;;4995291;28;20248;-57
2021/09/09 08:29:38;;;;;;;7.77;7.10;;;25.50;99.90;;;;;;4995500;28;20495;-58
2021/09/09 08:32:04;;;;;;;7.60;6.80;;;25.60;99.90;;;;;;4995961;28;20227;-56
2021/09/09 08:34:29;;;;;;;8.40;7.70;;;25.40;99.90;;;;;;4995479;28;20250;-57
2021/09/09 08:36:55;;;;;;;10.30;7.60;;;25.50;99.90;;;;;;4995758;28;20176;-55
2021/09/09 08:39:20;;;;;;;7.47;6.77;;;25.50;99.90;;;;;;4994731;28;20177;-54
2021/09/09 08:41:46;;;;;;;7.20;6.60;;;25.20;99.90;;;;;;4983340;28;20185;-57
2021/09/09 08:44:12;;;;;;;7.77;6.97;;;25.20;99.90;;;;;;4995037;28;20196;-54
2021/09/09 08:46:38;;;;;;;8.20;7.40;;;25.40;99.90;;;;;;4995184;28;20577;-54
2021/09/09 08:49:03;;;;;;;8.20;7.30;;;25.40;99.90;;;;;;4995224;28;20168;-55
2021/09/09 08:51:29;;;;;;;8.00;7.20;;;25.30;99.90;;;;;;4994021;28;20177;-56
2021/09/09 08:53:56;;;;;;;7.40;6.67;;;25.20;99.90;;;;;;4995146;28;20176;-58
2021/09/09 08:56:22;;;;;;;7.93;7.23;;;25.20;99.90;;;;;;4994931;28;20165;-58
2021/09/09 08:58:48;;;;;;;8.23;7.47;;;25.40;99.90;;;;;;5026333;23;21097;-62
2021/09/09 09:01:18;;;;;;;9.27;6.97;;;25.60;99.90;;;;;;4998436;28;20594;-61
2021/09/09 09:03:50;;;;;;;10.70;8.17;;;25.80;99.90;;;;;;4995349;28;20156;-61
2021/09/09 09:06:22;;;;;;;7.70;6.70;;;25.90;99.90;;;;;;5011019;28;20410;-61
2021/09/09 09:08:59;;;;;;;7.63;7.00;;;25.80;99.90;;;;;;5014566;28;20422;-61
2021/09/09 09:11:26;;;;;;;7.90;7.10;;;25.60;99.90;;;;;;5002958;28;20928;-61
2021/09/09 09:13:52;;;;;;;12.27;6.90;;;25.90;99.90;;;;;;4981457;28;20427;-60
2021/09/09 09:16:19;;;;;;;8.27;7.40;;;25.70;99.90;;;;;;4957869;28;20409;-61
2021/09/09 09:18:46;;;;;;;8.33;7.30;;;25.90;99.90;;;;;;4975204;28;20435;-61
2021/09/09 09:21:13;;;;;;;8.43;7.73;;;26.00;99.90;;;;;;4975680;28;20428;-61
2021/09/09 09:23:47;;;;;;;7.40;6.80;;;26.20;99.90;;;;;;4975238;28;20405;-61
2021/09/09 09:26:13;;;;;;;11.47;6.70;;;26.50;99.90;;;;;;4975465;28;20428;-61
2021/09/09 09:28:47;;;;;;;10.10;7.40;;;26.50;99.90;;;;;;4980657;28;20440;-61
2021/09/09 09:31:18;;;;;;;7.57;6.90;;;26.70;99.90;;;;;;4995014;28;20165;-61
2021/09/09 09:33:55;;;;;;;8.90;7.20;;;26.70;99.90;;;;;;4994676;28;20439;-61
2021/09/09 09:36:37;;;;;;;7.73;6.93;;;26.60;99.90;;;;;;4994670;28;20441;-61
2021/09/09 09:39:08;;;;;;;7.53;6.83;;;26.40;99.90;;;;;;4994483;28;20498;-61
2021/09/09 09:41:35;;;;;;;7.20;6.60;;;26.50;99.90;;;;;;4994149;28;20988;-61
2021/09/09 09:44:05;;;;;;;8.90;6.70;;;26.80;99.90;;;;;;4976255;28;20433;-61
2021/09/09 09:46:41;;;;;;;8.23;7.47;;;27.00;99.90;;;;;;4994537;28;20448;-61
2021/09/09 09:49:29;;;;;;;8.37;7.57;;;27.30;99.90;;;;;;4994344;28;20518;-62
2021/09/09 09:52:01;;;;;;;8.40;7.00;;;27.00;99.90;;;;;;4993681;28;20416;-62
2021/09/09 09:54:27;;;;;;;8.00;7.30;;;27.30;99.90;;;;;;4993762;28;20486;-61
2021/09/09 09:56:55;;;;;;;8.17;7.37;;;27.40;99.90;;;;;;4994047;28;20462;-61
2021/09/09 09:59:21;;;;;;;7.20;6.53;;;27.60;99.60;;;;;;4993388;28;20538;-61
2021/09/09 10:01:47;;;;;;;7.27;6.73;;;27.90;99.30;;;;;;4994208;28;20850;-61
2021/09/09 10:04:18;;;;;;;7.37;6.67;;;27.70;99.00;;;;;;4994124;28;20825;-62
2021/09/09 10:06:47;;;;;;;9.50;6.37;;;28.00;99.80;;;;;;4994051;28;20407;-61
2021/09/09 10:09:13;;;;;;;7.47;6.63;;;28.00;98.90;;;;;;4976692;28;20429;-61
2021/09/09 10:11:39;;;;;;;7.90;7.10;;;27.90;98.90;;;;;;4994049;28;20404;-61
2021/09/09 10:14:06;;;;;;;7.33;6.63;;;28.00;99.60;;;;;;4993526;28;20400;-61
2021/09/09 10:16:41;;;;;;;7.37;6.37;;;27.80;98.60;;;;;;4993996;28;20408;-62
2021/09/09 10:19:10;;;;;;;7.53;6.30;;;28.10;98.70;;;;;;4993620;28;20856;-61
2021/09/09 10:21:45;;;;;;;8.60;6.37;;;28.00;98.20;;;;;;4994050;28;20404;-62
2021/09/09 10:24:27;;;;;;;6.83;6.17;;;28.10;98.00;;;;;;4993705;28;20387;-61
2021/09/09 10:27:16;;;;;;;10.03;6.50;;;28.60;98.90;;;;;;4994211;28;20749;-61
2021/09/09 10:29:41;;;;;;;6.93;6.33;;;28.60;96.80;;;;;;4993324;28;20439;-62
2021/09/09 10:32:08;;;;;;;6.57;5.97;;;28.50;97.60;;;;;;4993691;28;20396;-62
2021/09/09 10:34:35;;;;;;;6.53;5.83;;;28.40;96.60;;;;;;4993566;28;20176;-62
2021/09/09 10:37:03;;;;;;;7.30;6.70;;;28.80;97.40;;;;;;4993605;28;20408;-61
2021/09/09 10:39:35;;;;;;;6.77;6.17;;;28.90;95.90;;;;;;4993752;28;20451;-62
2021/09/09 10:42:33;;;;;;;6.23;5.73;;;28.90;98.20;;;;;;4993599;28;20408;-61
2021/09/09 10:44:59;;;;;;;6.20;5.70;;;28.80;96.30;;;;;;4993154;28;20450;-61
2021/09/09 10:47:24;;;;;;;6.30;5.80;;;29.00;97.60;;;;;;4993710;28;20399;-61
2021/09/09 10:50:01;;;;;;;6.40;5.80;;;30.00;95.70;;;;;;4993766;28;20240;-61
2021/09/09 10:52:27;;;;;;;7.47;5.70;;;31.00;94.70;;;;;;4994066;28;20149;-61
2021/09/09 10:55:04;;;;;;;6.47;5.87;;;31.20;92.60;;;;;;4993427;28;20750;-61
2021/09/09 10:57:30;;;;;;;7.27;5.40;;;32.90;91.70;;;;;;4993672;28;20526;-61
2021/09/09 10:59:56;;;;;;;5.80;5.40;;;33.70;90.30;;;;;;4992660;28;20451;-61
2021/09/09 11:02:22;;;;;;;6.13;5.10;;;34.10;83.70;;;;;;4994991;28;20204;-61
2021/09/09 11:04:51;;;;;;;8.00;5.17;;;33.50;82.10;;;;;;4997124;28;20225;-63
2021/09/09 11:07:22;;;;;;;5.80;5.20;;;33.20;83.70;;;;;;4997232;28;20256;-60
2021/09/09 11:09:57;;;;;;;6.17;5.67;;;33.20;82.10;;;;;;4996997;28;20987;-61
2021/09/09 11:12:23;;;;;;;5.70;5.20;;;33.40;82.00;;;;;;4997483;28;20757;-61
2021/09/09 11:14:49;;;;;;;5.93;4.90;;;33.80;79.90;;;;;;4996732;28;20817;-61
2021/09/09 11:17:17;;;;;;;5.50;5.00;;;35.80;78.30;;;;;;4997429;28;20407;-60
2021/09/09 11:19:43;;;;;;;5.87;5.03;;;36.50;73.00;;;;;;4979815;28;20199;-61
2021/09/09 11:22:09;;;;;;;5.30;4.80;;;37.00;68.40;;;;;;4997658;28;20760;-60
2021/09/09 11:24:35;;;;;;;5.43;4.77;;;36.90;67.60;;;;;;4997069;28;20446;-61
2021/09/09 11:27:02;;;;;;;6.70;5.00;;;35.90;70.10;;;;;;4997008;28;20260;-60
2021/09/09 11:29:27;;;;;;;6.80;4.90;;;36.20;68.60;;;;;;4995761;28;20467;-61
2021/09/09 11:31:56;;;;;;;5.37;4.87;;;35.60;69.90;;;;;;4996787;28;20431;-61
2021/09/09 11:34:31;;;;;;;5.30;4.80;;;35.80;69.00;;;;;;4996521;28;20176;-61
2021/09/09 11:37:02;;;;;;;5.63;5.03;;;36.40;67.30;;;;;;4996600;28;20375;-61
2021/09/09 11:39:33;;;;;;;4.90;4.60;;;36.30;69.10;;;;;;4996713;28;20427;-61
2021/09/09 11:41:59;;;;;;;5.70;5.17;;;36.70;65.60;;;;;;4979213;28;20454;-61
2021/09/09 11:44:28;;;;;;;4.27;3.97;;;36.60;64.70;;;;;;4996134;28;20443;-61
2021/09/09 11:46:55;;;;;;;5.03;4.60;;;37.20;63.60;;;;;;4997369;28;20907;-61
2021/09/09 11:49:23;;;;;;;5.43;4.80;;;37.90;61.50;;;;;;4996627;28;20793;-61
2021/09/09 11:51:54;;;;;;;4.27;3.97;;;36.60;64.10;;;;;;4996243;28;20404;-61
2021/09/09 11:54:25;;;;;;;5.90;5.40;;;37.70;61.60;;;;;;4996317;28;20439;-61
2021/09/09 11:56:53;;;;;;;6.70;4.33;;;37.60;63.60;;;;;;4996175;28;20825;-61
2021/09/09 11:59:19;;;;;;;7.03;4.57;;;37.90;60.30;;;;;;4995484;28;20463;-61
2021/09/09 12:01:48;;;;;;;6.63;5.17;;;38.30;60.80;;;;;;4996340;28;20767;-61
2021/09/09 12:04:16;;;;;;;4.50;4.10;;;38.10;58.50;;;;;;4994888;28;20438;-61
2021/09/09 12:06:42;;;;;;;4.53;4.13;;;37.90;58.80;;;;;;4982968;28;20420;-61
2021/09/09 12:09:08;;;;;;;4.80;4.20;;;38.70;58.20;;;;;;4976507;28;20424;-61
2021/09/09 12:11:34;;;;;;;5.83;4.70;;;37.30;58.70;;;;;;4976789;28;20405;-61
2021/09/09 12:14:17;;;;;;;5.60;5.00;;;37.70;60.50;;;;;;4975089;28;20953;-62
2021/09/09 12:16:42;;;;;;;7.00;4.70;;;37.50;59.50;;;;;;4976547;28;20227;-62
2021/09/09 12:19:10;;;;;;;5.10;4.70;;;36.10;60.00;;;;;;4976201;28;20831;-61
2021/09/09 12:21:36;;;;;;;5.10;4.70;;;35.80;60.90;;;;;;4976390;28;20189;-61
2021/09/09 12:24:05;;;;;;;5.80;4.70;;;36.40;61.30;;;;;;4976528;28;20420;-62
2021/09/09 12:26:34;;;;;;;5.80;5.40;;;36.70;60.20;;;;;;4976495;28;20170;-61
2021/09/09 12:29:11;;;;;;;4.97;4.50;;;36.80;58.00;;;;;;4984419;28;20925;-61
2021/09/09 12:31:36;;;;;;;4.77;4.37;;;37.20;58.60;;;;;;4995925;28;20514;-61
2021/09/09 12:34:14;;;;;;;6.27;4.20;;;37.70;57.80;;;;;;4995883;28;20864;-62
2021/09/09 12:36:47;;;;;;;5.40;4.97;;;38.30;56.00;;;;;;4995687;28;20161;-62